sensor_id;sensor_type;location;lat;lon;timestamp;P1;durP1;ratioP1;P2;durP2;ratioP2
40637;SDS011;26336;44.696;10.622;2022-08-21T00:02:27;4.13;;;2.13;;
40637;SDS011;26336;44.696;10.622;2022-08-21T00:05:32;2.22;;;2.03;;
40637;SDS011;26336;44.696;10.622;2022-08-21T00:08:40;4.03;;;2.00;;
40637;SDS011;26336;44.696;10.622;2022-08-21T00:11:44;2.10;;;1.90;;
40637;SDS011;26336;44.696;10.622;2022-08-21T00:14:48;2.40;;;2.10;;
40637;SDS011;26336;44.696;10.622;2022-08-21T00:17:52;4.38;;;2.20;;
40637;SDS011;26336;44.696;10.622;2022-08-21T00:20:57;2.10;;;1.90;;
40637;SDS011;26336;44.696;10.622;2022-08-21T00:24:01;3.13;;;2.10;;
40637;SDS011;26336;44.696;10.622;2022-08-21T00:27:05;3.85;;;2.58;;
40637;SDS011;26336;44.696;10.622;2022-08-21T00:30:10;2.92;;;2.10;;
40637;SDS011;26336;44.696;10.622;2022-08-21T00:33:16;2.97;;;2.30;;
40637;SDS011;26336;44.696;10.622;2022-08-21T00:36:20;5.40;;;2.38;;
40637;SDS011;26336;44.696;10.622;2022-08-21T00:39:24;3.05;;;2.60;;
40637;SDS011;26336;44.696;10.622;2022-08-21T00:42:29;2.60;;;2.38;;
40637;SDS011;26336;44.696;10.622;2022-08-21T00:45:34;2.55;;;2.05;;
40637;SDS011;26336;44.696;10.622;2022-08-21T00:48:38;4.45;;;2.10;;
40637;SDS011;26336;44.696;10.622;2022-08-21T00:51:50;2.63;;;2.20;;
40637;SDS011;26336;44.696;10.622;2022-08-21T00:55:01;3.15;;;2.85;;
40637;SDS011;26336;44.696;10.622;2022-08-21T00:58:06;2.85;;;2.25;;
40637;SDS011;26336;44.696;10.622;2022-08-21T01:01:12;2.72;;;2.38;;
40637;SDS011;26336;44.696;10.622;2022-08-21T01:04:16;3.30;;;2.75;;
40637;SDS011;26336;44.696;10.622;2022-08-21T01:07:24;3.17;;;2.70;;
40637;SDS011;26336;44.696;10.622;2022-08-21T01:10:28;4.47;;;2.30;;
40637;SDS011;26336;44.696;10.622;2022-08-21T01:13:35;3.78;;;2.55;;
40637;SDS011;26336;44.696;10.622;2022-08-21T01:16:42;3.63;;;2.67;;
40637;SDS011;26336;44.696;10.622;2022-08-21T01:19:49;3.05;;;2.75;;
40637;SDS011;26336;44.696;10.622;2022-08-21T01:22:53;3.53;;;3.22;;
40637;SDS011;26336;44.696;10.622;2022-08-21T01:25:56;3.95;;;3.30;;
40637;SDS011;26336;44.696;10.622;2022-08-21T01:32:35;3.72;;;2.75;;
40637;SDS011;26336;44.696;10.622;2022-08-21T01:35:39;3.22;;;2.92;;
40637;SDS011;26336;44.696;10.622;2022-08-21T01:38:43;4.28;;;3.20;;
40637;SDS011;26336;44.696;10.622;2022-08-21T01:41:46;4.15;;;3.53;;
40637;SDS011;26336;44.696;10.622;2022-08-21T01:44:51;6.82;;;4.05;;
40637;SDS011;26336;44.696;10.622;2022-08-21T01:47:55;4.25;;;3.75;;
40637;SDS011;26336;44.696;10.622;2022-08-21T01:50:59;4.65;;;3.10;;
40637;SDS011;26336;44.696;10.622;2022-08-21T01:54:03;6.63;;;3.63;;
40637;SDS011;26336;44.696;10.622;2022-08-21T01:57:07;3.70;;;3.25;;
40637;SDS011;26336;44.696;10.622;2022-08-21T02:00:12;3.33;;;3.00;;
40637;SDS011;26336;44.696;10.622;2022-08-21T02:03:20;3.78;;;3.38;;
40637;SDS011;26336;44.696;10.622;2022-08-21T02:06:23;4.43;;;3.78;;
40637;SDS011;26336;44.696;10.622;2022-08-21T02:09:27;4.25;;;3.28;;
40637;SDS011;26336;44.696;10.622;2022-08-21T02:12:32;5.70;;;3.80;;
40637;SDS011;26336;44.696;10.622;2022-08-21T02:15:36;4.55;;;3.40;;
40637;SDS011;26336;44.696;10.622;2022-08-21T02:18:39;3.88;;;3.53;;
40637;SDS011;26336;44.696;10.622;2022-08-21T02:21:43;4.45;;;3.03;;
40637;SDS011;26336;44.696;10.622;2022-08-21T02:24:47;5.65;;;3.25;;
40637;SDS011;26336;44.696;10.622;2022-08-21T02:27:51;3.33;;;2.85;;
40637;SDS011;26336;44.696;10.622;2022-08-21T02:30:56;3.63;;;3.15;;
40637;SDS011;26336;44.696;10.622;2022-08-21T02:34:01;3.85;;;2.92;;
40637;SDS011;26336;44.696;10.622;2022-08-21T02:37:05;5.53;;;2.80;;
40637;SDS011;26336;44.696;10.622;2022-08-21T02:40:09;3.53;;;3.15;;
40637;SDS011;26336;44.696;10.622;2022-08-21T02:43:14;5.40;;;3.10;;
40637;SDS011;26336;44.696;10.622;2022-08-21T02:46:19;5.20;;;3.17;;
40637;SDS011;26336;44.696;10.622;2022-08-21T02:49:24;3.03;;;2.70;;
40637;SDS011;26336;44.696;10.622;2022-08-21T02:52:28;3.55;;;2.90;;
40637;SDS011;26336;44.696;10.622;2022-08-21T02:55:32;3.45;;;2.67;;
40637;SDS011;26336;44.696;10.622;2022-08-21T02:58:40;3.40;;;3.00;;
40637;SDS011;26336;44.696;10.622;2022-08-21T03:01:47;3.33;;;2.47;;
40637;SDS011;26336;44.696;10.622;2022-08-21T03:04:50;4.82;;;2.60;;
40637;SDS011;26336;44.696;10.622;2022-08-21T03:07:54;3.00;;;2.70;;
40637;SDS011;26336;44.696;10.622;2022-08-21T03:10:59;2.90;;;2.60;;
40637;SDS011;26336;44.696;10.622;2022-08-21T03:14:04;4.53;;;3.28;;
40637;SDS011;26336;44.696;10.622;2022-08-21T03:17:08;2.35;;;2.15;;
40637;SDS011;26336;44.696;10.622;2022-08-21T03:20:16;2.90;;;2.20;;
40637;SDS011;26336;44.696;10.622;2022-08-21T03:23:26;7.72;;;2.70;;
40637;SDS011;26336;44.696;10.622;2022-08-21T03:26:30;4.07;;;3.08;;
40637;SDS011;26336;44.696;10.622;2022-08-21T03:29:34;3.25;;;2.38;;
40637;SDS011;26336;44.696;10.622;2022-08-21T03:32:38;5.22;;;2.85;;
40637;SDS011;26336;44.696;10.622;2022-08-21T03:35:43;2.58;;;2.35;;
40637;SDS011;26336;44.696;10.622;2022-08-21T03:38:50;4.10;;;2.53;;
40637;SDS011;26336;44.696;10.622;2022-08-21T03:41:53;2.58;;;2.38;;
40637;SDS011;26336;44.696;10.622;2022-08-21T03:44:57;2.45;;;2.10;;
40637;SDS011;26336;44.696;10.622;2022-08-21T03:48:02;7.03;;;2.50;;
40637;SDS011;26336;44.696;10.622;2022-08-21T03:51:08;3.20;;;2.30;;
40637;SDS011;26336;44.696;10.622;2022-08-21T03:54:12;2.53;;;2.33;;
40637;SDS011;26336;44.696;10.622;2022-08-21T03:57:16;2.95;;;2.15;;
40637;SDS011;26336;44.696;10.622;2022-08-21T04:00:21;2.55;;;2.15;;
40637;SDS011;26336;44.696;10.622;2022-08-21T04:03:26;2.67;;;2.20;;
40637;SDS011;26336;44.696;10.622;2022-08-21T04:06:31;4.18;;;2.50;;
40637;SDS011;26336;44.696;10.622;2022-08-21T04:09:36;4.35;;;3.05;;
40637;SDS011;26336;44.696;10.622;2022-08-21T04:12:40;4.50;;;2.90;;
40637;SDS011;26336;44.696;10.622;2022-08-21T04:15:44;3.60;;;2.67;;
40637;SDS011;26336;44.696;10.622;2022-08-21T04:18:48;4.07;;;2.97;;
40637;SDS011;26336;44.696;10.622;2022-08-21T04:21:52;3.30;;;3.00;;
40637;SDS011;26336;44.696;10.622;2022-08-21T04:24:56;3.17;;;2.75;;
40637;SDS011;26336;44.696;10.622;2022-08-21T04:28:03;4.15;;;3.03;;
40637;SDS011;26336;44.696;10.622;2022-08-21T04:31:10;2.97;;;2.75;;
40637;SDS011;26336;44.696;10.622;2022-08-21T04:34:13;3.83;;;3.00;;
40637;SDS011;26336;44.696;10.622;2022-08-21T04:37:17;4.10;;;2.42;;
40637;SDS011;26336;44.696;10.622;2022-08-21T04:40:22;3.22;;;2.92;;
40637;SDS011;26336;44.696;10.622;2022-08-21T04:43:27;5.60;;;2.72;;
40637;SDS011;26336;44.696;10.622;2022-08-21T04:46:31;5.10;;;3.38;;
40637;SDS011;26336;44.696;10.622;2022-08-21T04:49:38;4.22;;;2.78;;
40637;SDS011;26336;44.696;10.622;2022-08-21T04:52:42;3.78;;;3.40;;
40637;SDS011;26336;44.696;10.622;2022-08-21T04:55:46;4.70;;;3.33;;
40637;SDS011;26336;44.696;10.622;2022-08-21T04:58:52;4.78;;;3.22;;
40637;SDS011;26336;44.696;10.622;2022-08-21T05:01:59;3.22;;;2.92;;
40637;SDS011;26336;44.696;10.622;2022-08-21T05:05:04;6.63;;;3.30;;
40637;SDS011;26336;44.696;10.622;2022-08-21T05:08:09;3.47;;;3.17;;
40637;SDS011;26336;44.696;10.622;2022-08-21T05:11:17;5.53;;;3.28;;
40637;SDS011;26336;44.696;10.622;2022-08-21T05:14:22;4.88;;;3.42;;
40637;SDS011;26336;44.696;10.622;2022-08-21T05:17:27;4.05;;;2.53;;
40637;SDS011;26336;44.696;10.622;2022-08-21T05:20:31;3.42;;;2.70;;
40637;SDS011;26336;44.696;10.622;2022-08-21T05:23:38;4.68;;;2.50;;
40637;SDS011;26336;44.696;10.622;2022-08-21T05:26:42;3.05;;;2.47;;
40637;SDS011;26336;44.696;10.622;2022-08-21T05:29:46;2.80;;;2.15;;
40637;SDS011;26336;44.696;10.622;2022-08-21T05:32:55;3.35;;;2.42;;
40637;SDS011;26336;44.696;10.622;2022-08-21T05:36:04;10.25;;;2.88;;
40637;SDS011;26336;44.696;10.622;2022-08-21T05:39:11;2.58;;;2.17;;
40637;SDS011;26336;44.696;10.622;2022-08-21T05:42:15;5.00;;;2.40;;
40637;SDS011;26336;44.696;10.622;2022-08-21T05:45:20;3.13;;;2.30;;
40637;SDS011;26336;44.696;10.622;2022-08-21T05:48:29;4.88;;;2.10;;
40637;SDS011;26336;44.696;10.622;2022-08-21T05:51:32;5.47;;;1.85;;
40637;SDS011;26336;44.696;10.622;2022-08-21T05:54:37;3.45;;;2.00;;
40637;SDS011;26336;44.696;10.622;2022-08-21T05:57:41;2.90;;;1.90;;
40637;SDS011;26336;44.696;10.622;2022-08-21T06:00:45;2.80;;;1.83;;
40637;SDS011;26336;44.696;10.622;2022-08-21T06:03:53;2.60;;;2.03;;
40637;SDS011;26336;44.696;10.622;2022-08-21T06:06:57;3.13;;;2.40;;
40637;SDS011;26336;44.696;10.622;2022-08-21T06:10:02;2.15;;;1.50;;
40637;SDS011;26336;44.696;10.622;2022-08-21T06:13:06;1.95;;;1.55;;
40637;SDS011;26336;44.696;10.622;2022-08-21T06:16:12;2.67;;;1.70;;
40637;SDS011;26336;44.696;10.622;2022-08-21T06:19:18;2.67;;;1.52;;
40637;SDS011;26336;44.696;10.622;2022-08-21T06:22:22;1.83;;;1.63;;
40637;SDS011;26336;44.696;10.622;2022-08-21T06:25:26;1.52;;;1.33;;
40637;SDS011;26336;44.696;10.622;2022-08-21T06:28:31;2.63;;;1.65;;
40637;SDS011;26336;44.696;10.622;2022-08-21T06:31:38;3.03;;;1.52;;
40637;SDS011;26336;44.696;10.622;2022-08-21T06:34:43;1.35;;;1.25;;
40637;SDS011;26336;44.696;10.622;2022-08-21T06:37:47;4.50;;;1.95;;
40637;SDS011;26336;44.696;10.622;2022-08-21T06:40:51;1.73;;;1.52;;
40637;SDS011;26336;44.696;10.622;2022-08-21T06:43:55;2.05;;;1.48;;
40637;SDS011;26336;44.696;10.622;2022-08-21T06:47:00;2.17;;;1.65;;
40637;SDS011;26336;44.696;10.622;2022-08-21T06:50:05;4.18;;;1.60;;
40637;SDS011;26336;44.696;10.622;2022-08-21T06:53:11;2.65;;;1.85;;
40637;SDS011;26336;44.696;10.622;2022-08-21T06:56:19;3.30;;;1.58;;
40637;SDS011;26336;44.696;10.622;2022-08-21T06:59:27;1.95;;;1.77;;
40637;SDS011;26336;44.696;10.622;2022-08-21T07:02:31;3.08;;;1.73;;
40637;SDS011;26336;44.696;10.622;2022-08-21T07:05:37;2.13;;;1.50;;
40637;SDS011;26336;44.696;10.622;2022-08-21T07:08:40;2.47;;;1.40;;
40637;SDS011;26336;44.696;10.622;2022-08-21T07:11:45;1.67;;;1.38;;
40637;SDS011;26336;44.696;10.622;2022-08-21T07:14:54;2.25;;;1.52;;
40637;SDS011;26336;44.696;10.622;2022-08-21T07:17:58;1.83;;;1.55;;
40637;SDS011;26336;44.696;10.622;2022-08-21T07:21:05;1.58;;;1.48;;
40637;SDS011;26336;44.696;10.622;2022-08-21T07:24:10;1.80;;;1.40;;
40637;SDS011;26336;44.696;10.622;2022-08-21T07:27:14;3.47;;;2.22;;
40637;SDS011;26336;44.696;10.622;2022-08-21T07:30:18;2.45;;;1.80;;
40637;SDS011;26336;44.696;10.622;2022-08-21T07:33:23;4.43;;;1.98;;
40637;SDS011;26336;44.696;10.622;2022-08-21T07:36:29;3.47;;;2.38;;
40637;SDS011;26336;44.696;10.622;2022-08-21T07:39:33;3.55;;;2.10;;
40637;SDS011;26336;44.696;10.622;2022-08-21T07:42:44;3.42;;;2.05;;
40637;SDS011;26336;44.696;10.622;2022-08-21T07:45:50;2.05;;;1.60;;
40637;SDS011;26336;44.696;10.622;2022-08-21T07:48:54;3.00;;;1.98;;
40637;SDS011;26336;44.696;10.622;2022-08-21T07:51:58;3.65;;;1.80;;
40637;SDS011;26336;44.696;10.622;2022-08-21T07:55:03;3.38;;;2.30;;
40637;SDS011;26336;44.696;10.622;2022-08-21T07:58:08;3.30;;;2.35;;
40637;SDS011;26336;44.696;10.622;2022-08-21T08:01:12;4.25;;;2.42;;
40637;SDS011;26336;44.696;10.622;2022-08-21T08:04:16;4.80;;;2.75;;
40637;SDS011;26336;44.696;10.622;2022-08-21T08:07:21;4.13;;;3.42;;
40637;SDS011;26336;44.696;10.622;2022-08-21T08:10:25;4.05;;;3.65;;
40637;SDS011;26336;44.696;10.622;2022-08-21T08:13:30;4.38;;;3.85;;
40637;SDS011;26336;44.696;10.622;2022-08-21T08:16:34;5.65;;;4.38;;
40637;SDS011;26336;44.696;10.622;2022-08-21T08:19:38;7.25;;;4.85;;
40637;SDS011;26336;44.696;10.622;2022-08-21T08:22:42;5.90;;;3.92;;
40637;SDS011;26336;44.696;10.622;2022-08-21T08:25:47;4.70;;;4.25;;
40637;SDS011;26336;44.696;10.622;2022-08-21T08:28:51;6.43;;;4.82;;
40637;SDS011;26336;44.696;10.622;2022-08-21T08:31:55;5.43;;;3.92;;
40637;SDS011;26336;44.696;10.622;2022-08-21T08:34:59;4.53;;;4.13;;
40637;SDS011;26336;44.696;10.622;2022-08-21T08:38:03;8.57;;;5.90;;
40637;SDS011;26336;44.696;10.622;2022-08-21T08:41:13;7.63;;;5.70;;
40637;SDS011;26336;44.696;10.622;2022-08-21T08:44:22;8.48;;;5.25;;
40637;SDS011;26336;44.696;10.622;2022-08-21T08:47:26;9.32;;;6.22;;
40637;SDS011;26336;44.696;10.622;2022-08-21T08:50:51;7.38;;;6.15;;
40637;SDS011;26336;44.696;10.622;2022-08-21T08:53:59;7.60;;;5.80;;
40637;SDS011;26336;44.696;10.622;2022-08-21T08:57:09;7.05;;;5.43;;
40637;SDS011;26336;44.696;10.622;2022-08-21T09:00:19;5.75;;;4.97;;
40637;SDS011;26336;44.696;10.622;2022-08-21T09:03:25;4.13;;;3.67;;
40637;SDS011;26336;44.696;10.622;2022-08-21T09:26:47;8.68;;;6.13;;
40637;SDS011;26336;44.696;10.622;2022-08-21T09:30:06;7.82;;;5.63;;
40637;SDS011;26336;44.696;10.622;2022-08-21T09:33:13;6.75;;;5.55;;
40637;SDS011;26336;44.696;10.622;2022-08-21T09:36:26;7.28;;;5.95;;
40637;SDS011;26336;44.696;10.622;2022-08-21T09:42:53;5.82;;;4.88;;
40637;SDS011;26336;44.696;10.622;2022-08-21T09:46:08;5.97;;;5.35;;
40637;SDS011;26336;44.696;10.622;2022-08-21T09:49:30;6.28;;;4.60;;
40637;SDS011;26336;44.696;10.622;2022-08-21T09:52:46;9.82;;;5.75;;
40637;SDS011;26336;44.696;10.622;2022-08-21T09:55:57;6.32;;;4.93;;
40637;SDS011;26336;44.696;10.622;2022-08-21T09:59:28;10.07;;;6.68;;
40637;SDS011;26336;44.696;10.622;2022-08-21T10:02:35;7.72;;;6.18;;
40637;SDS011;26336;44.696;10.622;2022-08-21T10:05:39;6.03;;;5.32;;
40637;SDS011;26336;44.696;10.622;2022-08-21T10:09:03;9.38;;;6.45;;
40637;SDS011;26336;44.696;10.622;2022-08-21T10:12:15;6.32;;;5.70;;
40637;SDS011;26336;44.696;10.622;2022-08-21T10:19:01;5.20;;;3.90;;
40637;SDS011;26336;44.696;10.622;2022-08-21T10:26:24;5.15;;;4.03;;
40637;SDS011;26336;44.696;10.622;2022-08-21T10:36:51;5.97;;;3.42;;
40637;SDS011;26336;44.696;10.622;2022-08-21T10:46:50;4.22;;;3.00;;
40637;SDS011;26336;44.696;10.622;2022-08-21T10:57:32;4.55;;;2.88;;
40637;SDS011;26336;44.696;10.622;2022-08-21T11:04:15;5.32;;;3.45;;
40637;SDS011;26336;44.696;10.622;2022-08-21T11:07:27;2.90;;;2.28;;
40637;SDS011;26336;44.696;10.622;2022-08-21T11:14:04;3.15;;;2.10;;
40637;SDS011;26336;44.696;10.622;2022-08-21T11:17:29;3.53;;;2.30;;
40637;SDS011;26336;44.696;10.622;2022-08-21T11:27:43;8.00;;;2.58;;
40637;SDS011;26336;44.696;10.622;2022-08-21T11:30:57;4.25;;;1.90;;
40637;SDS011;26336;44.696;10.622;2022-08-21T11:34:28;2.85;;;2.20;;
40637;SDS011;26336;44.696;10.622;2022-08-21T11:41:30;1.70;;;1.60;;
40637;SDS011;26336;44.696;10.622;2022-08-21T11:47:56;1.90;;;1.58;;
40637;SDS011;26336;44.696;10.622;2022-08-21T11:51:11;3.53;;;2.08;;
40637;SDS011;26336;44.696;10.622;2022-08-21T11:57:46;2.42;;;2.05;;
40637;SDS011;26336;44.696;10.622;2022-08-21T12:00:57;2.00;;;1.63;;
40637;SDS011;26336;44.696;10.622;2022-08-21T12:04:08;2.45;;;1.77;;
40637;SDS011;26336;44.696;10.622;2022-08-21T12:07:34;2.15;;;1.58;;
40637;SDS011;26336;44.696;10.622;2022-08-21T12:10:58;3.60;;;1.83;;
40637;SDS011;26336;44.696;10.622;2022-08-21T12:14:23;4.00;;;1.90;;
40637;SDS011;26336;44.696;10.622;2022-08-21T12:17:34;3.72;;;1.60;;
40637;SDS011;26336;44.696;10.622;2022-08-21T12:21:24;3.15;;;1.52;;
40637;SDS011;26336;44.696;10.622;2022-08-21T12:27:47;3.15;;;1.75;;
40637;SDS011;26336;44.696;10.622;2022-08-21T12:30:54;4.93;;;1.90;;
40637;SDS011;26336;44.696;10.622;2022-08-21T12:33:59;2.05;;;1.63;;
40637;SDS011;26336;44.696;10.622;2022-08-21T12:40:40;2.53;;;1.55;;
40637;SDS011;26336;44.696;10.622;2022-08-21T12:43:50;2.00;;;1.52;;
40637;SDS011;26336;44.696;10.622;2022-08-21T12:47:06;1.30;;;1.20;;
40637;SDS011;26336;44.696;10.622;2022-08-21T12:50:19;2.42;;;1.50;;
40637;SDS011;26336;44.696;10.622;2022-08-21T12:53:30;2.65;;;1.58;;
40637;SDS011;26336;44.696;10.622;2022-08-21T12:56:38;1.42;;;1.30;;
40637;SDS011;26336;44.696;10.622;2022-08-21T12:59:44;3.85;;;1.48;;
40637;SDS011;26336;44.696;10.622;2022-08-21T13:02:49;2.33;;;1.60;;
40637;SDS011;26336;44.696;10.622;2022-08-21T13:05:54;2.83;;;1.38;;
40637;SDS011;26336;44.696;10.622;2022-08-21T13:09:04;5.45;;;1.65;;
40637;SDS011;26336;44.696;10.622;2022-08-21T13:12:10;5.28;;;1.75;;
40637;SDS011;26336;44.696;10.622;2022-08-21T13:15:21;3.30;;;1.50;;
40637;SDS011;26336;44.696;10.622;2022-08-21T13:18:39;2.40;;;1.70;;
40637;SDS011;26336;44.696;10.622;2022-08-21T13:21:58;1.75;;;1.30;;
40637;SDS011;26336;44.696;10.622;2022-08-21T13:25:03;2.97;;;1.40;;
40637;SDS011;26336;44.696;10.622;2022-08-21T13:28:14;1.88;;;1.20;;
40637;SDS011;26336;44.696;10.622;2022-08-21T13:31:20;2.47;;;1.45;;
40637;SDS011;26336;44.696;10.622;2022-08-21T13:34:30;3.92;;;1.33;;
40637;SDS011;26336;44.696;10.622;2022-08-21T13:37:38;1.30;;;1.20;;
40637;SDS011;26336;44.696;10.622;2022-08-21T13:40:51;2.47;;;1.17;;
40637;SDS011;26336;44.696;10.622;2022-08-21T13:47:12;4.05;;;1.40;;
40637;SDS011;26336;44.696;10.622;2022-08-21T13:50:18;3.55;;;1.58;;
40637;SDS011;26336;44.696;10.622;2022-08-21T13:53:30;1.73;;;1.20;;
40637;SDS011;26336;44.696;10.622;2022-08-21T13:56:43;1.38;;;1.27;;
40637;SDS011;26336;44.696;10.622;2022-08-21T13:59:49;2.65;;;1.27;;
40637;SDS011;26336;44.696;10.622;2022-08-21T14:02:53;2.85;;;1.20;;
40637;SDS011;26336;44.696;10.622;2022-08-21T14:06:10;1.63;;;1.00;;
40637;SDS011;26336;44.696;10.622;2022-08-21T14:15:57;1.93;;;1.13;;
40637;SDS011;26336;44.696;10.622;2022-08-21T14:25:44;1.73;;;1.17;;
40637;SDS011;26336;44.696;10.622;2022-08-21T14:28:49;1.95;;;1.00;;
40637;SDS011;26336;44.696;10.622;2022-08-21T14:31:54;2.45;;;0.98;;
40637;SDS011;26336;44.696;10.622;2022-08-21T14:35:01;1.00;;;0.90;;
40637;SDS011;26336;44.696;10.622;2022-08-21T14:38:25;1.92;;;1.30;;
40637;SDS011;26336;44.696;10.622;2022-08-21T14:41:31;1.30;;;1.20;;
40637;SDS011;26336;44.696;10.622;2022-08-21T14:44:35;2.17;;;0.77;;
40637;SDS011;26336;44.696;10.622;2022-08-21T14:47:39;1.85;;;1.35;;
40637;SDS011;26336;44.696;10.622;2022-08-21T14:50:45;1.23;;;0.90;;
40637;SDS011;26336;44.696;10.622;2022-08-21T14:53:49;1.35;;;1.25;;
40637;SDS011;26336;44.696;10.622;2022-08-21T14:56:57;2.45;;;1.00;;
40637;SDS011;26336;44.696;10.622;2022-08-21T15:00:07;2.10;;;1.08;;
40637;SDS011;26336;44.696;10.622;2022-08-21T15:03:12;2.80;;;0.90;;
40637;SDS011;26336;44.696;10.622;2022-08-21T15:06:17;1.92;;;1.15;;
40637;SDS011;26336;44.696;10.622;2022-08-21T15:09:22;2.45;;;1.23;;
40637;SDS011;26336;44.696;10.622;2022-08-21T15:12:27;1.77;;;0.90;;
40637;SDS011;26336;44.696;10.622;2022-08-21T15:15:32;2.85;;;0.98;;
40637;SDS011;26336;44.696;10.622;2022-08-21T15:18:41;1.20;;;1.10;;
40637;SDS011;26336;44.696;10.622;2022-08-21T15:21:46;2.83;;;1.13;;
40637;SDS011;26336;44.696;10.622;2022-08-21T15:24:50;1.17;;;1.08;;
40637;SDS011;26336;44.696;10.622;2022-08-21T15:27:54;3.22;;;1.65;;
40637;SDS011;26336;44.696;10.622;2022-08-21T15:30:59;1.92;;;1.40;;
40637;SDS011;26336;44.696;10.622;2022-08-21T15:34:03;2.00;;;1.75;;
40637;SDS011;26336;44.696;10.622;2022-08-21T15:37:07;3.08;;;1.23;;
40637;SDS011;26336;44.696;10.622;2022-08-21T15:40:12;1.85;;;1.40;;
40637;SDS011;26336;44.696;10.622;2022-08-21T15:43:27;1.48;;;1.25;;
40637;SDS011;26336;44.696;10.622;2022-08-21T15:46:34;1.63;;;0.80;;
40637;SDS011;26336;44.696;10.622;2022-08-21T15:49:41;2.13;;;1.00;;
40637;SDS011;26336;44.696;10.622;2022-08-21T15:52:48;1.63;;;1.10;;
40637;SDS011;26336;44.696;10.622;2022-08-21T15:55:53;1.13;;;1.00;;
40637;SDS011;26336;44.696;10.622;2022-08-21T15:58:58;1.65;;;1.20;;
40637;SDS011;26336;44.696;10.622;2022-08-21T16:02:04;0.95;;;0.93;;
40637;SDS011;26336;44.696;10.622;2022-08-21T16:05:11;1.38;;;0.90;;
40637;SDS011;26336;44.696;10.622;2022-08-21T16:08:16;1.45;;;0.95;;
40637;SDS011;26336;44.696;10.622;2022-08-21T16:11:20;1.13;;;1.00;;
40637;SDS011;26336;44.696;10.622;2022-08-21T16:14:25;2.90;;;1.13;;
40637;SDS011;26336;44.696;10.622;2022-08-21T16:17:32;1.35;;;1.10;;
40637;SDS011;26336;44.696;10.622;2022-08-21T16:20:37;2.97;;;1.13;;
40637;SDS011;26336;44.696;10.622;2022-08-21T16:23:42;1.50;;;1.20;;
40637;SDS011;26336;44.696;10.622;2022-08-21T16:26:48;1.85;;;1.13;;
40637;SDS011;26336;44.696;10.622;2022-08-21T16:29:53;1.38;;;1.00;;
40637;SDS011;26336;44.696;10.622;2022-08-21T16:32:58;1.83;;;1.05;;
40637;SDS011;26336;44.696;10.622;2022-08-21T16:36:05;1.52;;;0.98;;
40637;SDS011;26336;44.696;10.622;2022-08-21T16:39:10;2.97;;;1.27;;
40637;SDS011;26336;44.696;10.622;2022-08-21T16:42:17;1.10;;;0.90;;
40637;SDS011;26336;44.696;10.622;2022-08-21T16:45:24;3.55;;;1.40;;
40637;SDS011;26336;44.696;10.622;2022-08-21T16:48:29;1.80;;;1.10;;
40637;SDS011;26336;44.696;10.622;2022-08-21T16:51:33;2.08;;;1.10;;
40637;SDS011;26336;44.696;10.622;2022-08-21T16:54:37;3.92;;;1.40;;
40637;SDS011;26336;44.696;10.622;2022-08-21T16:57:41;1.40;;;1.00;;
40637;SDS011;26336;44.696;10.622;2022-08-21T17:00:46;2.03;;;0.82;;
40637;SDS011;26336;44.696;10.622;2022-08-21T17:03:50;2.00;;;1.17;;
40637;SDS011;26336;44.696;10.622;2022-08-21T17:06:55;2.17;;;1.05;;
40637;SDS011;26336;44.696;10.622;2022-08-21T17:10:04;1.85;;;1.10;;
40637;SDS011;26336;44.696;10.622;2022-08-21T17:13:09;1.02;;;0.93;;
40637;SDS011;26336;44.696;10.622;2022-08-21T17:16:14;1.23;;;1.13;;
40637;SDS011;26336;44.696;10.622;2022-08-21T17:19:19;1.55;;;0.90;;
40637;SDS011;26336;44.696;10.622;2022-08-21T17:22:23;1.10;;;1.00;;
40637;SDS011;26336;44.696;10.622;2022-08-21T17:25:27;5.95;;;1.27;;
40637;SDS011;26336;44.696;10.622;2022-08-21T17:28:33;1.40;;;1.20;;
40637;SDS011;26336;44.696;10.622;2022-08-21T17:31:39;1.67;;;1.17;;
40637;SDS011;26336;44.696;10.622;2022-08-21T17:34:45;2.10;;;1.05;;
40637;SDS011;26336;44.696;10.622;2022-08-21T17:37:49;1.33;;;1.08;;
40637;SDS011;26336;44.696;10.622;2022-08-21T17:40:55;1.13;;;1.02;;
40637;SDS011;26336;44.696;10.622;2022-08-21T17:44:00;1.30;;;1.02;;
40637;SDS011;26336;44.696;10.622;2022-08-21T17:47:09;2.40;;;1.30;;
40637;SDS011;26336;44.696;10.622;2022-08-21T17:50:16;2.65;;;1.48;;
40637;SDS011;26336;44.696;10.622;2022-08-21T17:53:21;2.55;;;1.25;;
40637;SDS011;26336;44.696;10.622;2022-08-21T17:56:27;1.90;;;1.40;;
40637;SDS011;26336;44.696;10.622;2022-08-21T17:59:34;1.83;;;1.20;;
40637;SDS011;26336;44.696;10.622;2022-08-21T18:02:39;2.08;;;1.13;;
40637;SDS011;26336;44.696;10.622;2022-08-21T18:05:45;2.75;;;1.20;;
40637;SDS011;26336;44.696;10.622;2022-08-21T18:08:51;2.15;;;1.65;;
40637;SDS011;26336;44.696;10.622;2022-08-21T18:11:55;2.97;;;1.45;;
40637;SDS011;26336;44.696;10.622;2022-08-21T18:15:01;1.90;;;1.40;;
40637;SDS011;26336;44.696;10.622;2022-08-21T18:18:06;3.17;;;1.50;;
40637;SDS011;26336;44.696;10.622;2022-08-21T18:21:11;1.42;;;1.33;;
40637;SDS011;26336;44.696;10.622;2022-08-21T18:24:15;3.10;;;1.80;;
40637;SDS011;26336;44.696;10.622;2022-08-21T18:27:20;4.05;;;2.13;;
40637;SDS011;26336;44.696;10.622;2022-08-21T18:30:25;2.95;;;1.50;;
40637;SDS011;26336;44.696;10.622;2022-08-21T18:33:29;2.70;;;1.50;;
40637;SDS011;26336;44.696;10.622;2022-08-21T18:36:33;1.80;;;1.65;;
40637;SDS011;26336;44.696;10.622;2022-08-21T18:39:37;2.10;;;1.50;;
40637;SDS011;26336;44.696;10.622;2022-08-21T18:42:44;2.70;;;2.00;;
40637;SDS011;26336;44.696;10.622;2022-08-21T18:45:49;3.10;;;1.83;;
40637;SDS011;26336;44.696;10.622;2022-08-21T18:48:53;4.05;;;2.05;;
40637;SDS011;26336;44.696;10.622;2022-08-21T18:51:57;3.60;;;2.00;;
40637;SDS011;26336;44.696;10.622;2022-08-21T18:55:01;3.15;;;1.80;;
40637;SDS011;26336;44.696;10.622;2022-08-21T18:58:06;2.60;;;2.13;;
40637;SDS011;26336;44.696;10.622;2022-08-21T19:01:11;2.85;;;2.25;;
40637;SDS011;26336;44.696;10.622;2022-08-21T19:04:15;4.07;;;2.15;;
40637;SDS011;26336;44.696;10.622;2022-08-21T19:07:19;4.03;;;2.53;;
40637;SDS011;26336;44.696;10.622;2022-08-21T19:10:24;2.33;;;1.92;;
40637;SDS011;26336;44.696;10.622;2022-08-21T19:13:28;3.38;;;2.10;;
40637;SDS011;26336;44.696;10.622;2022-08-21T19:16:33;4.25;;;2.40;;
40637;SDS011;26336;44.696;10.622;2022-08-21T19:19:38;1.90;;;1.70;;
40637;SDS011;26336;44.696;10.622;2022-08-21T19:22:42;3.50;;;2.97;;
40637;SDS011;26336;44.696;10.622;2022-08-21T19:25:46;4.68;;;2.50;;
40637;SDS011;26336;44.696;10.622;2022-08-21T19:28:54;3.58;;;2.13;;
40637;SDS011;26336;44.696;10.622;2022-08-21T19:32:00;4.63;;;2.30;;
40637;SDS011;26336;44.696;10.622;2022-08-21T19:35:06;3.05;;;2.22;;
40637;SDS011;26336;44.696;10.622;2022-08-21T19:38:11;5.05;;;2.45;;
40637;SDS011;26336;44.696;10.622;2022-08-21T19:41:15;3.38;;;2.22;;
40637;SDS011;26336;44.696;10.622;2022-08-21T19:44:22;5.65;;;2.35;;
40637;SDS011;26336;44.696;10.622;2022-08-21T19:47:30;4.30;;;1.98;;
40637;SDS011;26336;44.696;10.622;2022-08-21T19:50:35;5.55;;;2.47;;
40637;SDS011;26336;44.696;10.622;2022-08-21T19:53:39;2.47;;;2.10;;
40637;SDS011;26336;44.696;10.622;2022-08-21T19:56:44;3.17;;;2.17;;
40637;SDS011;26336;44.696;10.622;2022-08-21T19:59:48;4.57;;;3.33;;
40637;SDS011;26336;44.696;10.622;2022-08-21T20:02:53;5.35;;;3.63;;
40637;SDS011;26336;44.696;10.622;2022-08-21T20:05:58;4.65;;;2.53;;
40637;SDS011;26336;44.696;10.622;2022-08-21T20:09:02;5.18;;;2.85;;
40637;SDS011;26336;44.696;10.622;2022-08-21T20:12:07;2.60;;;1.92;;